Time;durP1;ratioP1;P1;durP2;ratioP2;P2;SDS_P1;SDS_P2;PMS_P1;PMS_P2;Temp;Humidity;BMP_temperature;BMP_pressure;BME280_temperature;BME280_humidity;BME280_pressure;Samples;Min_cycle;Max_cycle;Signal;HPM_P1;HPM_P2
2023/12/12 00:01:23;;;;;;;29.05;13.07;;;;;;;;;;8333042;28;20533;-92
2023/12/12 00:05:26;;;;;;;28.10;14.00;;;;;;;;;;8332978;28;20120;-93
2023/12/12 00:09:29;;;;;;;34.00;14.02;;;;;;;;;;8332919;28;20404;-91
2023/12/12 00:13:33;;;;;;;26.50;11.70;;;;;;;;;;8331595;28;20055;-92
2023/12/12 00:17:36;;;;;;;24.50;12.32;;;;;;;;;;8330920;28;20624;-91
2023/12/12 00:21:39;;;;;;;28.58;12.38;;;;;;;;;;8331925;28;20160;-93
2023/12/12 00:25:42;;;;;;;26.63;13.23;;;;;;;;;;8332067;28;20046;-93
2023/12/12 00:29:47;;;;;;;24.77;12.43;;;;;;;;;;8331976;28;20143;-91
2023/12/12 00:33:50;;;;;;;25.05;12.23;;;;;;;;;;8332226;28;20052;-93
2023/12/12 00:37:52;;;;;;;23.75;12.32;;;;;;;;;;8331769;28;20527;-90
2023/12/12 00:41:55;;;;;;;22.00;10.15;;;;;;;;;;8331961;28;20128;-93
2023/12/12 00:46:00;;;;;;;24.85;11.60;;;;;;;;;;8331839;28;20076;-90
2023/12/12 00:50:03;;;;;;;16.35;9.23;;;;;;;;;;8331866;28;20049;-92
2023/12/12 00:54:06;;;;;;;22.45;10.27;;;;;;;;;;8332943;28;20060;-89
2023/12/12 00:58:09;;;;;;;20.05;11.05;;;;;;;;;;8332157;28;20136;-92
2023/12/12 01:02:13;;;;;;;22.23;10.40;;;;;;;;;;8338551;28;20049;-92
2023/12/12 01:06:23;;;;;;;22.42;10.90;;;;;;;;;;8338476;28;20056;-90
2023/12/12 01:10:26;;;;;;;19.10;9.23;;;;;;;;;;8337839;28;20053;-92
2023/12/12 01:14:29;;;;;;;21.27;10.45;;;;;;;;;;8338094;28;20049;-92
2023/12/12 01:18:34;;;;;;;15.30;9.07;;;;;;;;;;8337852;28;20094;-92
2023/12/12 01:22:37;;;;;;;21.60;9.88;;;;;;;;;;8337425;28;20050;-92
2023/12/12 01:26:40;;;;;;;18.67;9.45;;;;;;;;;;8337668;28;20171;-91
2023/12/12 01:30:43;;;;;;;16.83;8.57;;;;;;;;;;8337984;28;20493;-92
2023/12/12 01:34:47;;;;;;;16.77;8.88;;;;;;;;;;8337183;28;20049;-91
2023/12/12 01:38:50;;;;;;;17.15;8.88;;;;;;;;;;8337203;28;20049;-90
2023/12/12 01:43:03;;;;;;;15.90;7.60;;;;;;;;;;8337032;28;20057;-92
2023/12/12 01:47:06;;;;;;;15.05;7.85;;;;;;;;;;8337000;28;20053;-93
2023/12/12 01:51:11;;;;;;;14.02;7.80;;;;;;;;;;8336943;28;20057;-93
2023/12/12 01:55:14;;;;;;;14.07;7.70;;;;;;;;;;8336407;28;20049;-91
2023/12/12 01:59:18;;;;;;;13.00;6.90;;;;;;;;;;8336756;28;20057;-92
2023/12/12 02:03:23;;;;;;;12.50;6.03;;;;;;;;;;8336729;28;20401;-91
2023/12/12 02:07:29;;;;;;;13.32;6.00;;;;;;;;;;8335967;28;20056;-92
2023/12/12 02:11:32;;;;;;;8.75;5.03;;;;;;;;;;8317886;28;20149;-93
2023/12/12 02:15:35;;;;;;;9.27;5.05;;;;;;;;;;8336134;28;20033;-92
2023/12/12 02:19:38;;;;;;;7.20;3.75;;;;;;;;;;8335848;28;20493;-91
2023/12/12 02:23:41;;;;;;;9.07;3.92;;;;;;;;;;8318387;28;20103;-91
2023/12/12 02:27:45;;;;;;;10.80;4.95;;;;;;;;;;8335516;28;20041;-91
2023/12/12 02:31:47;;;;;;;7.63;4.68;;;;;;;;;;8335869;28;20073;-91
2023/12/12 02:35:50;;;;;;;6.95;3.92;;;;;;;;;;8335688;28;20064;-91
2023/12/12 02:39:55;;;;;;;6.93;3.90;;;;;;;;;;8335482;28;20417;-92
2023/12/12 02:43:57;;;;;;;7.65;3.80;;;;;;;;;;8335515;28;20550;-91
2023/12/12 02:48:01;;;;;;;8.68;3.97;;;;;;;;;;8334840;28;20537;-91
2023/12/12 02:52:04;;;;;;;8.57;4.32;;;;;;;;;;8333586;28;20152;-90
2023/12/12 02:56:09;;;;;;;7.25;4.45;;;;;;;;;;8336346;28;20065;-91
2023/12/12 03:00:13;;;;;;;6.15;3.53;;;;;;;;;;8333978;28;20050;-91
2023/12/12 03:04:16;;;;;;;7.97;4.70;;;;;;;;;;8334138;28;20093;-92
2023/12/12 03:08:19;;;;;;;10.57;5.63;;;;;;;;;;8333933;28;20045;-92
2023/12/12 03:12:23;;;;;;;6.90;3.50;;;;;;;;;;8333603;28;20049;-91
2023/12/12 03:16:26;;;;;;;7.35;4.15;;;;;;;;;;8333510;28;20042;-91
2023/12/12 03:20:29;;;;;;;8.68;4.60;;;;;;;;;;8333547;28;20117;-91
2023/12/12 03:24:32;;;;;;;7.13;3.90;;;;;;;;;;8314965;28;20136;-92
2023/12/12 03:28:36;;;;;;;9.23;4.57;;;;;;;;;;8333481;28;20409;-92
2023/12/12 03:32:39;;;;;;;6.03;3.45;;;;;;;;;;8315249;28;20045;-91
2023/12/12 03:36:43;;;;;;;6.60;3.85;;;;;;;;;;8333227;28;20045;-90
2023/12/12 03:40:46;;;;;;;4.88;2.72;;;;;;;;;;8333130;28;20061;-91
2023/12/12 03:44:50;;;;;;;4.78;3.00;;;;;;;;;;8332557;28;20151;-91
2023/12/12 03:48:53;;;;;;;5.07;2.63;;;;;;;;;;8332672;28;20050;-93
2023/12/12 03:52:56;;;;;;;4.40;2.80;;;;;;;;;;8332556;28;20047;-92
2023/12/12 03:56:59;;;;;;;4.28;2.47;;;;;;;;;;8332316;28;20071;-92
2023/12/12 04:01:04;;;;;;;5.03;2.70;;;;;;;;;;8332219;28;20061;-92
2023/12/12 04:05:09;;;;;;;10.00;5.28;;;;;;;;;;8332102;28;20052;-91
2023/12/12 04:09:12;;;;;;;10.25;5.45;;;;;;;;;;8332006;28;20050;-92
2023/12/12 04:13:15;;;;;;;11.38;6.47;;;;;;;;;;8332092;28;20386;-91
2023/12/12 04:17:19;;;;;;;15.93;8.85;;;;;;;;;;8331785;28;20069;-91
2023/12/12 04:21:22;;;;;;;6.40;3.70;;;;;;;;;;8332190;28;20684;-92
2023/12/12 04:25:25;;;;;;;12.45;5.75;;;;;;;;;;8332101;28;20493;-90
2023/12/12 04:29:27;;;;;;;12.00;6.57;;;;;;;;;;8331635;28;20053;-91
2023/12/12 04:33:32;;;;;;;14.95;7.43;;;;;;;;;;8331428;28;20128;-91
2023/12/12 04:42:13;;;;;;;7.22;4.28;;;;;;;;;;8310324;28;20060;-89
2023/12/12 04:46:19;;;;;;;9.93;5.38;;;;;;;;;;8331476;28;20041;-92
2023/12/12 04:50:24;;;;;;;5.57;2.88;;;;;;;;;;8331161;28;20445;-90
2023/12/12 04:54:27;;;;;;;17.02;10.10;;;;;;;;;;8335220;28;20132;-91
2023/12/12 04:58:29;;;;;;;15.48;8.80;;;;;;;;;;8331358;28;20088;-91
2023/12/12 05:02:32;;;;;;;21.08;11.07;;;;;;;;;;8331011;28;20140;-91
2023/12/12 05:06:37;;;;;;;11.85;6.97;;;;;;;;;;8334423;28;20077;-90
2023/12/12 05:10:40;;;;;;;9.80;4.93;;;;;;;;;;8331396;28;20050;-88
2023/12/12 05:14:43;;;;;;;17.90;6.82;;;;;;;;;;8366553;28;20029;-90
2023/12/12 05:18:46;;;;;;;17.17;8.05;;;;;;;;;;8337978;28;20128;-91
2023/12/12 05:22:50;;;;;;;13.68;5.95;;;;;;;;;;8335106;28;20635;-92
2023/12/12 05:26:53;;;;;;;12.38;5.75;;;;;;;;;;8331895;28;20056;-89
2023/12/12 05:30:57;;;;;;;7.13;4.88;;;;;;;;;;8333169;28;20072;-88
2023/12/12 05:35:03;;;;;;;8.90;5.57;;;;;;;;;;8330146;28;20042;-91
2023/12/12 05:39:09;;;;;;;14.52;6.95;;;;;;;;;;8313304;28;20084;-91
2023/12/12 05:43:13;;;;;;;16.00;7.85;;;;;;;;;;8313312;28;20076;-90
2023/12/12 05:47:25;;;;;;;7.38;4.03;;;;;;;;;;8336432;28;20049;-93
2023/12/12 05:51:27;;;;;;;7.55;3.63;;;;;;;;;;8336783;28;20045;-91
2023/12/12 05:55:32;;;;;;;8.50;5.30;;;;;;;;;;8336229;28;20068;-92
2023/12/12 05:59:35;;;;;;;11.13;6.60;;;;;;;;;;8336094;28;20073;-92
2023/12/12 06:03:40;;;;;;;12.05;6.78;;;;;;;;;;8335521;28;20065;-90
2023/12/12 06:07:43;;;;;;;17.55;10.30;;;;;;;;;;8335806;28;20505;-91
2023/12/12 06:11:48;;;;;;;8.88;5.05;;;;;;;;;;8336251;28;20047;-91
2023/12/12 06:15:51;;;;;;;9.93;6.20;;;;;;;;;;8335543;28;20536;-91
2023/12/12 06:19:54;;;;;;;7.78;4.53;;;;;;;;;;8336902;28;20041;-91
2023/12/12 06:23:57;;;;;;;8.07;4.85;;;;;;;;;;8335315;28;20045;-91
2023/12/12 06:28:01;;;;;;;9.48;4.68;;;;;;;;;;8334817;28;20175;-91
2023/12/12 06:32:05;;;;;;;12.55;7.05;;;;;;;;;;8351212;28;20046;-91
2023/12/12 06:36:09;;;;;;;14.43;8.07;;;;;;;;;;8335125;28;20069;-90
2023/12/12 06:40:13;;;;;;;20.40;11.25;;;;;;;;;;8334812;28;20386;-91
2023/12/12 06:44:17;;;;;;;16.77;9.48;;;;;;;;;;8334894;28;20053;-90
2023/12/12 06:48:21;;;;;;;14.73;7.82;;;;;;;;;;8318122;28;20088;-92
2023/12/12 06:52:24;;;;;;;19.92;10.10;;;;;;;;;;8334841;28;20136;-91
2023/12/12 06:56:27;;;;;;;15.55;8.70;;;;;;;;;;8335614;28;20088;-92
2023/12/12 07:00:33;;;;;;;14.55;8.70;;;;;;;;;;8336369;28;20064;-91
2023/12/12 07:04:36;;;;;;;11.60;6.03;;;;;;;;;;8332873;28;20128;-91
2023/12/12 07:08:40;;;;;;;9.93;5.63;;;;;;;;;;8316005;28;20053;-92
2023/12/12 07:12:43;;;;;;;13.35;6.35;;;;;;;;;;8333125;28;20132;-90
2023/12/12 07:16:47;;;;;;;12.20;7.53;;;;;;;;;;8333614;28;20041;-89
2023/12/12 07:20:50;;;;;;;12.15;6.68;;;;;;;;;;8333753;28;20092;-93
2023/12/12 07:24:53;;;;;;;18.13;8.02;;;;;;;;;;8333693;28;20067;-90
2023/12/12 07:28:57;;;;;;;13.13;6.97;;;;;;;;;;8336976;28;20056;-91
2023/12/12 07:33:02;;;;;;;14.55;7.10;;;;;;;;;;8356032;28;20053;-88
2023/12/12 07:37:06;;;;;;;15.57;7.35;;;;;;;;;;8343309;28;20053;-92
2023/12/12 07:41:09;;;;;;;13.35;6.38;;;;;;;;;;8362864;28;20029;-90
2023/12/12 07:45:12;;;;;;;9.27;5.18;;;;;;;;;;8345933;28;20041;-91
2023/12/12 07:49:17;;;;;;;11.98;4.90;;;;;;;;;;8346727;28;20048;-92
2023/12/12 07:53:19;;;;;;;7.45;3.90;;;;;;;;;;8345518;28;20046;-92
2023/12/12 07:57:22;;;;;;;30.92;16.00;;;;;;;;;;8332802;28;20049;-91
2023/12/12 08:01:25;;;;;;;6.53;4.10;;;;;;;;;;8333402;28;20062;-91
2023/12/12 08:05:31;;;;;;;9.38;5.40;;;;;;;;;;8333051;28;20073;-92
2023/12/12 08:09:34;;;;;;;11.35;5.57;;;;;;;;;;8331251;28;20420;-92
2023/12/12 08:13:39;;;;;;;7.65;4.07;;;;;;;;;;8331428;28;20183;-92
2023/12/12 08:17:42;;;;;;;13.02;7.55;;;;;;;;;;8331952;28;20132;-91
2023/12/12 08:21:46;;;;;;;7.72;4.20;;;;;;;;;;8331779;28;20056;-91
2023/12/12 08:25:49;;;;;;;5.32;2.63;;;;;;;;;;8332068;28;20049;-90
2023/12/12 08:29:52;;;;;;;7.55;3.92;;;;;;;;;;8331538;28;20045;-91
2023/12/12 08:34:01;;;;;;;8.15;3.38;;;;;;;;;;8331780;28;20552;-89
2023/12/12 08:38:06;;;;;;;4.72;3.20;;;;;;;;;;8331302;28;20553;-88
2023/12/12 08:42:10;;;;;;;8.18;4.00;;;;;;;;;;8331672;28;20049;-92
2023/12/12 08:46:13;;;;;;;7.45;4.28;;;;;;;;;;8331396;28;20069;-90
2023/12/12 08:50:16;;;;;;;8.77;4.55;;;;;;;;;;8331187;28;20045;-90
2023/12/12 08:54:24;;;;;;;7.75;3.20;;;;;;;;;;8314604;28;20604;-92
2023/12/12 08:58:27;;;;;;;5.32;3.60;;;;;;;;;;8331276;28;20073;-92
2023/12/12 09:02:30;;;;;;;8.88;4.97;;;;;;;;;;8330850;28;20131;-92
2023/12/12 09:06:33;;;;;;;8.77;4.15;;;;;;;;;;8331115;28;20069;-89
2023/12/12 09:10:38;;;;;;;6.43;3.70;;;;;;;;;;8331251;28;20073;-91
2023/12/12 09:14:44;;;;;;;7.97;4.05;;;;;;;;;;8330925;28;20124;-91
2023/12/12 09:18:47;;;;;;;5.57;3.33;;;;;;;;;;8330852;28;20052;-92
2023/12/12 09:22:50;;;;;;;10.52;5.30;;;;;;;;;;8336330;28;20136;-92
2023/12/12 09:26:55;;;;;;;8.68;4.25;;;;;;;;;;8338765;28;20057;-90
2023/12/12 09:30:58;;;;;;;10.57;5.45;;;;;;;;;;8336346;28;20048;-91
2023/12/12 09:35:05;;;;;;;9.10;5.10;;;;;;;;;;8336310;28;20041;-90
2023/12/12 09:39:10;;;;;;;16.67;6.82;;;;;;;;;;8335504;28;20049;-92
2023/12/12 09:43:16;;;;;;;6.93;4.63;;;;;;;;;;8336381;28;20132;-93
2023/12/12 09:47:21;;;;;;;16.10;8.02;;;;;;;;;;8335760;28;20618;-92
2023/12/12 09:51:26;;;;;;;9.32;5.28;;;;;;;;;;8335498;28;20065;-92
2023/12/12 09:55:30;;;;;;;12.40;6.03;;;;;;;;;;8321758;28;20500;-92
2023/12/12 09:59:34;;;;;;;10.43;5.72;;;;;;;;;;8335795;28;20045;-91
2023/12/12 10:03:38;;;;;;;9.23;4.85;;;;;;;;;;8301831;28;20045;-91
2023/12/12 10:07:43;;;;;;;8.52;5.18;;;;;;;;;;8303235;28;20045;-91
2023/12/12 10:11:46;;;;;;;7.57;4.10;;;;;;;;;;8302961;28;20049;-90
2023/12/12 10:15:55;;;;;;;10.63;5.05;;;;;;;;;;8303065;28;20053;-89
2023/12/12 10:20:00;;;;;;;8.65;4.30;;;;;;;;;;8302370;28;20128;-90
2023/12/12 10:24:03;;;;;;;16.60;7.10;;;;;;;;;;8304938;28;20049;-91
2023/12/12 10:28:07;;;;;;;9.57;4.90;;;;;;;;;;8317639;28;20058;-91
2023/12/12 10:32:14;;;;;;;12.63;6.82;;;;;;;;;;8301099;28;20466;-88
2023/12/12 10:36:17;;;;;;;11.57;5.20;;;;;;;;;;8317729;28;20070;-89
2023/12/12 10:40:22;;;;;;;15.57;7.53;;;;;;;;;;8301621;28;20053;-88
2023/12/12 10:44:32;;;;;;;10.15;6.28;;;;;;;;;;8318235;28;20101;-91
2023/12/12 10:48:40;;;;;;;8.95;5.32;;;;;;;;;;8301284;28;20525;-91
2023/12/12 10:52:46;;;;;;;10.65;6.47;;;;;;;;;;8300974;28;20046;-92
2023/12/12 10:56:52;;;;;;;9.43;5.90;;;;;;;;;;8300672;28;20049;-91
2023/12/12 11:00:57;;;;;;;12.75;7.05;;;;;;;;;;8308339;28;20119;-89
2023/12/12 11:05:05;;;;;;;14.43;8.30;;;;;;;;;;8333286;28;20053;-91
2023/12/12 11:09:08;;;;;;;13.63;7.65;;;;;;;;;;8333468;28;20041;-90
2023/12/12 11:13:12;;;;;;;14.82;8.40;;;;;;;;;;8333140;28;20140;-91
2023/12/12 11:17:15;;;;;;;10.40;6.50;;;;;;;;;;8332973;28;20128;-91
2023/12/12 11:21:45;;;;;;;11.32;5.00;;;;;;;;;;8333105;28;20064;-92
2023/12/12 11:25:48;;;;;;;9.45;5.68;;;;;;;;;;8332909;28;20531;-91
2023/12/12 11:29:51;;;;;;;13.98;6.72;;;;;;;;;;8332545;28;20140;-91
2023/12/12 11:34:04;;;;;;;13.65;6.95;;;;;;;;;;8332409;28;20045;-90
2023/12/12 11:38:28;;;;;;;12.60;6.40;;;;;;;;;;8332288;28;20052;-91
2023/12/12 11:42:32;;;;;;;12.13;6.55;;;;;;;;;;8332063;28;20481;-90
2023/12/12 11:46:35;;;;;;;7.35;4.40;;;;;;;;;;8331618;28;20064;-90
2023/12/12 11:50:39;;;;;;;7.47;4.95;;;;;;;;;;8332043;28;20447;-87
2023/12/12 11:54:54;;;;;;;8.45;4.80;;;;;;;;;;8331802;28;20045;-91
2023/12/12 11:58:57;;;;;;;9.20;4.68;;;;;;;;;;8331798;28;20112;-90
2023/12/12 12:03:01;;;;;;;9.93;4.55;;;;;;;;;;8331750;28;20065;-90
2023/12/12 12:07:03;;;;;;;8.15;4.38;;;;;;;;;;8313838;28;20045;-88
2023/12/12 12:11:08;;;;;;;8.90;4.28;;;;;;;;;;8330759;28;20413;-89
2023/12/12 12:15:11;;;;;;;17.33;9.30;;;;;;;;;;8331656;28;20076;-91
2023/12/12 12:19:31;;;;;;;13.63;7.72;;;;;;;;;;8331642;28;20053;-92
2023/12/12 12:23:37;;;;;;;8.75;4.82;;;;;;;;;;8331481;28;20152;-91
2023/12/12 12:28:03;;;;;;;12.27;6.10;;;;;;;;;;8313898;28;20060;-92
2023/12/12 12:32:11;;;;;;;10.80;6.00;;;;;;;;;;8331401;28;20048;-90
2023/12/12 12:36:16;;;;;;;12.65;7.10;;;;;;;;;;8331838;28;20493;-91
2023/12/12 12:40:33;;;;;;;14.27;6.63;;;;;;;;;;8331177;28;20045;-88
2023/12/12 12:44:38;;;;;;;14.43;6.70;;;;;;;;;;8330862;28;20417;-91
2023/12/12 12:48:41;;;;;;;11.98;6.85;;;;;;;;;;8331379;28;20048;-88
2023/12/12 12:52:44;;;;;;;15.82;8.48;;;;;;;;;;8330703;28;20052;-90
2023/12/12 12:56:49;;;;;;;11.93;6.88;;;;;;;;;;8335284;28;20037;-92
2023/12/12 13:00:54;;;;;;;16.45;9.07;;;;;;;;;;8337650;28;20151;-91
2023/12/12 13:04:57;;;;;;;12.80;6.68;;;;;;;;;;8337666;28;20045;-92
2023/12/12 13:09:00;;;;;;;14.65;7.88;;;;;;;;;;8337644;28;20076;-92
2023/12/12 13:13:03;;;;;;;18.17;8.95;;;;;;;;;;8337909;28;20045;-91
2023/12/12 13:17:11;;;;;;;15.90;6.80;;;;;;;;;;8337591;28;20124;-91
2023/12/12 13:21:14;;;;;;;14.45;7.72;;;;;;;;;;8338204;28;20049;-93
2023/12/12 13:25:17;;;;;;;24.55;13.57;;;;;;;;;;8340460;28;20045;-91
2023/12/12 13:29:20;;;;;;;27.92;14.68;;;;;;;;;;8338429;28;20167;-92
2023/12/12 13:33:25;;;;;;;36.00;18.30;;;;;;;;;;8337477;28;20049;-92
2023/12/12 13:37:28;;;;;;;23.08;12.45;;;;;;;;;;8336187;28;20408;-92
2023/12/12 13:41:32;;;;;;;41.20;20.15;;;;;;;;;;8336268;28;20107;-93
2023/12/12 13:45:36;;;;;;;15.63;9.30;;;;;;;;;;8336976;28;20049;-92
2023/12/12 13:49:43;;;;;;;14.35;8.70;;;;;;;;;;8336821;28;20049;-92
2023/12/12 13:53:46;;;;;;;12.35;7.10;;;;;;;;;;8336869;28;20077;-92
2023/12/12 13:57:49;;;;;;;18.60;9.52;;;;;;;;;;8336575;28;20045;-91
2023/12/12 14:01:52;;;;;;;30.08;12.13;;;;;;;;;;8335797;28;20061;-92
2023/12/12 14:05:57;;;;;;;19.85;10.05;;;;;;;;;;8335774;28;20127;-92
2023/12/12 14:10:00;;;;;;;24.00;13.00;;;;;;;;;;8336185;28;20432;-91
2023/12/12 14:14:03;;;;;;;29.50;13.05;;;;;;;;;;8335961;28;20046;-92
2023/12/12 14:18:06;;;;;;;22.10;11.82;;;;;;;;;;8336011;28;20101;-90
2023/12/12 14:22:11;;;;;;;21.52;11.38;;;;;;;;;;8335610;28;20045;-92
2023/12/12 14:26:16;;;;;;;15.68;8.88;;;;;;;;;;8335942;28;20079;-91
2023/12/12 14:30:26;;;;;;;18.77;9.30;;;;;;;;;;8335817;28;20136;-91
2023/12/12 14:34:29;;;;;;;29.08;14.32;;;;;;;;;;8335389;28;20053;-92
2023/12/12 14:38:34;;;;;;;15.43;6.68;;;;;;;;;;8335424;28;20052;-92
2023/12/12 14:42:36;;;;;;;17.10;8.55;;;;;;;;;;8335367;28;20045;-91
2023/12/12 14:46:39;;;;;;;18.98;9.57;;;;;;;;;;8335337;28;20184;-91
2023/12/12 14:50:42;;;;;;;10.15;5.40;;;;;;;;;;8335222;28;20050;-92
2023/12/12 14:54:47;;;;;;;11.00;6.68;;;;;;;;;;8334785;28;20049;-91
2023/12/12 14:58:50;;;;;;;13.23;9.13;;;;;;;;;;8335093;28;20121;-92
2023/12/12 15:02:53;;;;;;;20.88;9.52;;;;;;;;;;8334743;28;20119;-93
2023/12/12 15:06:56;;;;;;;37.58;14.35;;;;;;;;;;8334380;28;20045;-92
2023/12/12 15:11:01;;;;;;;151.65;46.92;;;;;;;;;;8334476;28;20124;-91
2023/12/12 15:15:06;;;;;;;65.53;27.02;;;;;;;;;;8334947;28;20088;-93
2023/12/12 15:19:09;;;;;;;132.82;44.60;;;;;;;;;;8334157;28;20049;-92
2023/12/12 15:23:11;;;;;;;44.90;20.58;;;;;;;;;;8334458;28;20492;-92
2023/12/12 15:27:16;;;;;;;26.27;14.75;;;;;;;;;;8334123;28;20068;-91
2023/12/12 15:31:21;;;;;;;30.15;16.38;;;;;;;;;;8334006;28;20131;-91
2023/12/12 15:35:27;;;;;;;47.05;22.17;;;;;;;;;;8333756;28;20065;-92
2023/12/12 15:39:30;;;;;;;69.25;30.08;;;;;;;;;;8333669;28;20050;-92
2023/12/12 15:43:35;;;;;;;80.75;43.83;;;;;;;;;;8333979;28;20125;-92
2023/12/12 15:47:38;;;;;;;53.90;30.92;;;;;;;;;;8333563;28;20050;-92
2023/12/12 15:51:41;;;;;;;28.95;19.42;;;;;;;;;;8333751;28;20054;-92
2023/12/12 15:55:44;;;;;;;24.65;16.13;;;;;;;;;;8333540;28;20094;-93
2023/12/12 15:59:49;;;;;;;18.25;10.57;;;;;;;;;;8333758;28;20216;-92
2023/12/12 16:03:57;;;;;;;275.88;77.60;;;;;;;;;;8333045;28;20092;-92
2023/12/12 16:08:04;;;;;;;49.67;20.83;;;;;;;;;;8333545;28;20489;-92
2023/12/12 16:12:08;;;;;;;43.50;18.80;;;;;;;;;;8333236;28;20046;-92
2023/12/12 16:16:15;;;;;;;94.95;26.27;;;;;;;;;;8331865;28;20057;-90
2023/12/12 16:20:18;;;;;;;270.08;97.28;;;;;;;;;;8331214;28;20053;-91
2023/12/12 16:24:21;;;;;;;124.55;48.80;;;;;;;;;;8314004;28;20045;-90
2023/12/12 16:28:24;;;;;;;202.60;66.70;;;;;;;;;;8331368;28;20099;-92
2023/12/12 16:32:29;;;;;;;110.07;40.75;;;;;;;;;;8331605;28;20124;-91
2023/12/12 16:36:32;;;;;;;70.75;25.42;;;;;;;;;;8331909;28;20405;-93
2023/12/12 16:40:38;;;;;;;149.30;47.97;;;;;;;;;;8331805;28;20052;-91
2023/12/12 16:44:42;;;;;;;119.22;39.65;;;;;;;;;;8332290;28;20041;-92
2023/12/12 16:48:47;;;;;;;127.07;41.88;;;;;;;;;;8332278;28;20045;-92
2023/12/12 16:52:50;;;;;;;128.63;39.47;;;;;;;;;;8332349;28;20042;-93
2023/12/12 16:56:53;;;;;;;97.82;30.55;;;;;;;;;;8332778;28;20135;-90
2023/12/12 17:00:57;;;;;;;103.07;30.25;;;;;;;;;;8331283;28;20459;-89
2023/12/12 17:05:02;;;;;;;131.15;39.95;;;;;;;;;;8332102;28;20069;-92
2023/12/12 17:09:08;;;;;;;84.97;26.85;;;;;;;;;;8314703;28;20057;-92
2023/12/12 17:13:11;;;;;;;119.10;40.58;;;;;;;;;;8332099;28;20045;-90
2023/12/12 17:17:14;;;;;;;68.95;21.23;;;;;;;;;;8315717;28;20061;-91
2023/12/12 17:21:21;;;;;;;99.10;30.00;;;;;;;;;;8300857;28;20042;-90
2023/12/12 17:25:24;;;;;;;139.75;49.17;;;;;;;;;;8298537;28;20504;-92
2023/12/12 17:29:27;;;;;;;86.15;35.25;;;;;;;;;;8281602;28;20096;-92
2023/12/12 17:33:30;;;;;;;65.03;29.95;;;;;;;;;;8298730;28;20409;-92
2023/12/12 17:37:37;;;;;;;60.08;22.90;;;;;;;;;;8298715;28;20056;-92
2023/12/12 17:41:40;;;;;;;48.05;19.27;;;;;;;;;;8300714;28;20066;-92
2023/12/12 17:45:43;;;;;;;111.18;34.40;;;;;;;;;;8304996;28;20053;-93
2023/12/12 17:49:45;;;;;;;48.58;23.00;;;;;;;;;;8304704;28;20074;-92
2023/12/12 17:53:50;;;;;;;54.92;28.85;;;;;;;;;;8304513;28;20049;-93
2023/12/12 17:57:53;;;;;;;57.05;28.98;;;;;;;;;;8304570;28;20099;-93
2023/12/12 18:01:58;;;;;;;33.30;17.30;;;;;;;;;;8304067;28;20141;-91
2023/12/12 18:06:00;;;;;;;38.20;20.27;;;;;;;;;;8304028;28;20076;-93
2023/12/12 18:10:07;;;;;;;36.22;19.52;;;;;;;;;;8304254;28;20072;-93
2023/12/12 18:14:10;;;;;;;123.53;55.65;;;;;;;;;;8303916;28;20053;-91
2023/12/12 18:18:13;;;;;;;72.93;35.72;;;;;;;;;;8304221;28;20046;-92
2023/12/12 18:22:16;;;;;;;34.15;15.95;;;;;;;;;;8303887;28;20046;-93
2023/12/12 18:26:28;;;;;;;34.75;18.77;;;;;;;;;;8303853;28;20426;-92
2023/12/12 18:30:31;;;;;;;26.50;13.50;;;;;;;;;;8303986;28;20046;-92
2023/12/12 18:34:35;;;;;;;40.95;17.15;;;;;;;;;;8303186;28;20057;-92
2023/12/12 18:38:38;;;;;;;27.45;14.15;;;;;;;;;;8286148;28;20085;-92
2023/12/12 18:42:42;;;;;;;87.82;36.78;;;;;;;;;;8330118;28;20061;-93
2023/12/12 18:46:47;;;;;;;117.72;45.78;;;;;;;;;;8335067;28;20449;-92
2023/12/12 18:50:50;;;;;;;79.63;30.90;;;;;;;;;;8336102;28;20073;-93
2023/12/12 18:54:54;;;;;;;52.75;20.10;;;;;;;;;;8335130;28;20049;-91
2023/12/12 18:59:00;;;;;;;28.95;12.65;;;;;;;;;;8334323;28;20056;-92
2023/12/12 19:03:20;;;;;;;38.17;18.10;;;;;;;;;;8334311;28;20697;-93
2023/12/12 19:07:26;;;;;;;135.65;50.05;;;;;;;;;;8336832;28;20129;-94
2023/12/12 19:11:30;;;;;;;41.70;17.67;;;;;;;;;;8335495;28;20057;-92
2023/12/12 19:15:37;;;;;;;30.15;14.70;;;;;;;;;;8334575;28;20057;-92
2023/12/12 19:19:45;;;;;;;25.25;13.40;;;;;;;;;;8334200;28;20045;-93
2023/12/12 19:23:51;;;;;;;29.48;13.57;;;;;;;;;;8334236;28;20049;-92
2023/12/12 19:27:57;;;;;;;38.95;18.40;;;;;;;;;;8334054;28;20085;-90
2023/12/12 19:32:15;;;;;;;31.00;12.57;;;;;;;;;;8333601;28;20053;-92
2023/12/12 19:36:22;;;;;;;24.60;12.13;;;;;;;;;;8333885;28;20636;-92
2023/12/12 19:40:34;;;;;;;30.85;14.45;;;;;;;;;;8333644;28;20497;-93
2023/12/12 19:44:39;;;;;;;33.53;15.93;;;;;;;;;;8333360;28;20041;-92
2023/12/12 19:48:48;;;;;;;33.50;15.55;;;;;;;;;;8333504;28;20053;-92
2023/12/12 19:52:54;;;;;;;46.90;19.00;;;;;;;;;;8333287;28;20083;-93
2023/12/12 19:56:59;;;;;;;61.83;28.73;;;;;;;;;;8333407;28;20155;-92
2023/12/12 20:01:07;;;;;;;45.33;23.17;;;;;;;;;;8333162;28;20148;-92
2023/12/12 20:05:15;;;;;;;86.32;32.28;;;;;;;;;;8332139;28;20045;-93
2023/12/12 20:09:21;;;;;;;37.67;18.08;;;;;;;;;;8333202;28;20089;-93
2023/12/12 20:13:26;;;;;;;119.20;41.45;;;;;;;;;;8333528;28;20056;-92
2023/12/12 20:17:31;;;;;;;87.07;32.10;;;;;;;;;;8332781;28;20409;-94
2023/12/12 20:21:42;;;;;;;119.53;44.78;;;;;;;;;;8333129;28;20056;-91
2023/12/12 20:25:47;;;;;;;99.22;37.97;;;;;;;;;;8332635;28;20053;-90
2023/12/12 20:29:56;;;;;;;79.43;32.42;;;;;;;;;;8338975;28;20057;-88
2023/12/12 20:34:04;;;;;;;119.40;42.55;;;;;;;;;;8333952;28;20050;-92
2023/12/12 20:38:14;;;;;;;148.68;53.13;;;;;;;;;;8332782;28;20049;-93
2023/12/12 20:42:20;;;;;;;86.40;32.85;;;;;;;;;;8332590;28;20038;-92
2023/12/12 20:46:27;;;;;;;61.03;24.75;;;;;;;;;;8332660;28;20543;-92
2023/12/12 20:50:34;;;;;;;46.33;19.20;;;;;;;;;;8332475;28;20049;-92
2023/12/12 20:54:42;;;;;;;46.92;21.50;;;;;;;;;;8332357;28;20064;-93
2023/12/12 20:58:47;;;;;;;43.38;19.83;;;;;;;;;;8332522;28;20424;-92
2023/12/12 21:02:51;;;;;;;68.57;25.20;;;;;;;;;;8331938;28;20049;-93
2023/12/12 21:06:54;;;;;;;65.68;25.95;;;;;;;;;;8332764;28;20045;-92
2023/12/12 21:10:58;;;;;;;57.92;23.98;;;;;;;;;;8315049;28;20046;-93
2023/12/12 21:15:01;;;;;;;64.80;26.23;;;;;;;;;;8332445;28;20045;-92
2023/12/12 21:19:04;;;;;;;57.10;23.52;;;;;;;;;;8338581;28;20095;-92
2023/12/12 21:23:08;;;;;;;47.40;21.13;;;;;;;;;;8338857;28;20051;-92
2023/12/12 21:27:12;;;;;;;43.03;19.23;;;;;;;;;;8339529;28;20056;-92
2023/12/12 21:31:16;;;;;;;41.55;21.02;;;;;;;;;;8339050;28;20537;-91
2023/12/12 21:35:19;;;;;;;48.35;21.38;;;;;;;;;;8337625;28;20049;-92
2023/12/12 21:39:22;;;;;;;49.67;22.30;;;;;;;;;;8336297;28;20161;-92
2023/12/12 21:43:26;;;;;;;54.33;20.60;;;;;;;;;;8336665;28;20075;-92
2023/12/12 21:47:29;;;;;;;51.05;22.95;;;;;;;;;;8337159;28;20124;-92
2023/12/12 21:51:32;;;;;;;53.70;23.17;;;;;;;;;;8337466;28;20052;-93
2023/12/12 21:55:35;;;;;;;50.10;21.33;;;;;;;;;;8337111;28;20129;-92
2023/12/12 21:59:40;;;;;;;50.15;21.70;;;;;;;;;;8337518;28;20141;-93
2023/12/12 22:03:43;;;;;;;69.80;27.95;;;;;;;;;;8336617;28;20138;-92
2023/12/12 22:07:46;;;;;;;56.85;22.75;;;;;;;;;;8337069;28;20077;-92
2023/12/12 22:11:50;;;;;;;65.38;24.67;;;;;;;;;;8337072;28;20127;-92
2023/12/12 22:15:54;;;;;;;234.20;88.03;;;;;;;;;;8336287;28;20049;-92
2023/12/12 22:19:57;;;;;;;52.88;22.08;;;;;;;;;;8336496;28;20045;-92
2023/12/12 22:24:00;;;;;;;33.80;14.93;;;;;;;;;;8336777;28;20042;-93
2023/12/12 22:28:04;;;;;;;71.63;30.55;;;;;;;;;;8335755;28;20049;-90
2023/12/12 22:32:08;;;;;;;92.18;37.60;;;;;;;;;;8336226;28;20065;-91
2023/12/12 22:36:17;;;;;;;98.55;39.65;;;;;;;;;;8336069;28;20049;-93
2023/12/12 22:40:20;;;;;;;75.47;31.00;;;;;;;;;;8335642;28;20191;-93
2023/12/12 22:44:23;;;;;;;73.72;29.08;;;;;;;;;;8336448;28;20045;-92
2023/12/12 22:48:30;;;;;;;55.72;26.73;;;;;;;;;;8335674;28;20103;-90
2023/12/12 22:52:33;;;;;;;72.00;26.42;;;;;;;;;;8335415;28;20056;-91
2023/12/12 22:56:36;;;;;;;89.53;34.08;;;;;;;;;;8335425;28;20075;-92
2023/12/12 23:00:42;;;;;;;69.85;28.52;;;;;;;;;;8335273;28;20057;-91
2023/12/12 23:04:46;;;;;;;62.85;26.75;;;;;;;;;;8335442;28;20052;-92
2023/12/12 23:08:49;;;;;;;76.45;32.47;;;;;;;;;;8335080;28;20123;-92
2023/12/12 23:12:52;;;;;;;71.93;30.00;;;;;;;;;;8334829;28;20053;-92
2023/12/12 23:16:55;;;;;;;75.40;28.70;;;;;;;;;;8335552;28;20046;-92
2023/12/12 23:20:59;;;;;;;61.90;26.45;;;;;;;;;;8335259;28;20045;-91
2023/12/12 23:25:03;;;;;;;59.75;22.50;;;;;;;;;;8335496;28;20068;-92
2023/12/12 23:29:07;;;;;;;84.97;32.22;;;;;;;;;;8335068;28;20486;-91
2023/12/12 23:33:09;;;;;;;71.65;26.73;;;;;;;;;;8334678;28;20041;-91
2023/12/12 23:37:16;;;;;;;58.15;24.85;;;;;;;;;;8334636;28;20057;-93
2023/12/12 23:41:19;;;;;;;71.13;28.60;;;;;;;;;;8334595;28;20071;-92
2023/12/12 23:45:22;;;;;;;68.00;29.33;;;;;;;;;;8333998;28;20555;-92
2023/12/12 23:49:25;;;;;;;77.78;29.48;;;;;;;;;;8333769;28;20517;-92
2023/12/12 23:53:32;;;;;;;78.05;28.00;;;;;;;;;;8333854;28;20138;-91
2023/12/12 23:57:35;;;;;;;62.47;24.70;;;;;;;;;;8333558;28;20048;-92
